sensor_id;sensor_type;location;lat;lon;timestamp;temperature;humidity
64652;HTU21D;51062;45.120;37.660;2023-04-01T00:00:30;5.08;62.98
64652;HTU21D;51062;45.120;37.660;2023-04-01T00:02:56;5.09;62.96
64652;HTU21D;51062;45.120;37.660;2023-04-01T00:05:22;5.09;62.96
64652;HTU21D;51062;45.120;37.660;2023-04-01T00:07:50;5.09;62.92
64652;HTU21D;51062;45.120;37.660;2023-04-01T00:10:17;5.07;62.92
64652;HTU21D;51062;45.120;37.660;2023-04-01T00:12:43;5.04;62.92
64652;HTU21D;51062;45.120;37.660;2023-04-01T00:15:11;5.00;62.94
64652;HTU21D;51062;45.120;37.660;2023-04-01T00:17:37;4.93;62.97
64652;HTU21D;51062;45.120;37.660;2023-04-01T00:20:05;4.86;63.00
64652;HTU21D;51062;45.120;37.660;2023-04-01T00:22:31;4.82;63.11
64652;HTU21D;51062;45.120;37.660;2023-04-01T00:24:57;4.78;63.11
64652;HTU21D;51062;45.120;37.660;2023-04-01T00:27:23;4.74;63.11
64652;HTU21D;51062;45.120;37.660;2023-04-01T00:29:50;4.68;63.18
64652;HTU21D;51062;45.120;37.660;2023-04-01T00:32:16;4.64;63.21
64652;HTU21D;51062;45.120;37.660;2023-04-01T00:34:42;4.60;63.21
64652;HTU21D;51062;45.120;37.660;2023-04-01T00:37:09;4.53;63.21
64652;HTU21D;51062;45.120;37.660;2023-04-01T00:39:37;4.47;63.29
64652;HTU21D;51062;45.120;37.660;2023-04-01T00:42:03;4.45;63.35
64652;HTU21D;51062;45.120;37.660;2023-04-01T00:44:31;4.38;63.40
64652;HTU21D;51062;45.120;37.660;2023-04-01T00:46:59;4.38;63.60
64652;HTU21D;51062;45.120;37.660;2023-04-01T00:49:29;4.45;63.57
64652;HTU21D;51062;45.120;37.660;2023-04-01T00:51:59;4.47;63.47
64652;HTU21D;51062;45.120;37.660;2023-04-01T00:54:27;4.46;63.43
64652;HTU21D;51062;45.120;37.660;2023-04-01T00:56:59;4.44;63.40
64652;HTU21D;51062;45.120;37.660;2023-04-01T00:59:39;4.39;63.46
64652;HTU21D;51062;45.120;37.660;2023-04-01T01:02:11;4.34;63.41
64652;HTU21D;51062;45.120;37.660;2023-04-01T01:04:37;4.28;63.50
64652;HTU21D;51062;45.120;37.660;2023-04-01T01:17:57;4.26;63.63
64652;HTU21D;51062;45.120;37.660;2023-04-01T01:23:29;4.30;63.70
64652;HTU21D;51062;45.120;37.660;2023-04-01T01:29:35;4.32;63.59
64652;HTU21D;51062;45.120;37.660;2023-04-01T01:35:16;4.30;63.65
64652;HTU21D;51062;45.120;37.660;2023-04-01T01:37:46;4.31;63.63
64652;HTU21D;51062;45.120;37.660;2023-04-01T01:40:15;4.29;63.64
64652;HTU21D;51062;45.120;37.660;2023-04-01T01:42:49;4.28;63.73
64652;HTU21D;51062;45.120;37.660;2023-04-01T01:45:18;4.30;63.79
64652;HTU21D;51062;45.120;37.660;2023-04-01T01:47:49;4.32;63.80
64652;HTU21D;51062;45.120;37.660;2023-04-01T01:50:15;4.38;64.13
64652;HTU21D;51062;45.120;37.660;2023-04-01T01:52:42;4.49;63.89
64652;HTU21D;51062;45.120;37.660;2023-04-01T01:55:28;4.59;64.01
64652;HTU21D;51062;45.120;37.660;2023-04-01T01:58:00;4.63;63.69
64652;HTU21D;51062;45.120;37.660;2023-04-01T02:00:28;4.63;63.60
64652;HTU21D;51062;45.120;37.660;2023-04-01T02:02:54;4.60;63.60
64652;HTU21D;51062;45.120;37.660;2023-04-01T02:05:24;4.57;63.68
64652;HTU21D;51062;45.120;37.660;2023-04-01T02:08:12;4.57;63.76
64652;HTU21D;51062;45.120;37.660;2023-04-01T02:10:43;4.57;63.70
64652;HTU21D;51062;45.120;37.660;2023-04-01T02:13:24;4.58;63.81
64652;HTU21D;51062;45.120;37.660;2023-04-01T02:15:52;4.65;63.93
64652;HTU21D;51062;45.120;37.660;2023-04-01T02:18:21;4.74;63.85
64652;HTU21D;51062;45.120;37.660;2023-04-01T02:20:49;4.76;63.67
64652;HTU21D;51062;45.120;37.660;2023-04-01T02:23:15;4.76;63.69
64652;HTU21D;51062;45.120;37.660;2023-04-01T02:25:43;4.72;63.69
64652;HTU21D;51062;45.120;37.660;2023-04-01T02:28:10;4.65;63.67
64652;HTU21D;51062;45.120;37.660;2023-04-01T02:30:39;4.64;63.75
64652;HTU21D;51062;45.120;37.660;2023-04-01T02:33:07;4.60;63.85
64652;HTU21D;51062;45.120;37.660;2023-04-01T02:35:36;4.62;63.90
64652;HTU21D;51062;45.120;37.660;2023-04-01T02:38:03;4.62;63.85
64652;HTU21D;51062;45.120;37.660;2023-04-01T02:40:41;4.60;63.85
64652;HTU21D;51062;45.120;37.660;2023-04-01T02:43:08;4.59;63.92
64652;HTU21D;51062;45.120;37.660;2023-04-01T02:45:35;4.58;63.89
64652;HTU21D;51062;45.120;37.660;2023-04-01T02:48:02;4.56;63.93
64652;HTU21D;51062;45.120;37.660;2023-04-01T02:50:28;4.57;64.02
64652;HTU21D;51062;45.120;37.660;2023-04-01T02:52:54;4.60;64.14
64652;HTU21D;51062;45.120;37.660;2023-04-01T02:55:21;4.65;64.14
64652;HTU21D;51062;45.120;37.660;2023-04-01T02:57:48;4.66;64.08
64652;HTU21D;51062;45.120;37.660;2023-04-01T03:00:14;4.67;64.01
64652;HTU21D;51062;45.120;37.660;2023-04-01T03:02:41;4.66;64.01
64652;HTU21D;51062;45.120;37.660;2023-04-01T03:05:07;4.64;64.07
64652;HTU21D;51062;45.120;37.660;2023-04-01T03:07:33;4.63;64.01
64652;HTU21D;51062;45.120;37.660;2023-04-01T03:10:00;4.62;64.02
64652;HTU21D;51062;45.120;37.660;2023-04-01T03:12:26;4.59;64.00
64652;HTU21D;51062;45.120;37.660;2023-04-01T03:14:52;4.60;64.15
64652;HTU21D;51062;45.120;37.660;2023-04-01T03:17:19;4.76;64.39
64652;HTU21D;51062;45.120;37.660;2023-04-01T03:19:46;5.01;64.53
64652;HTU21D;51062;45.120;37.660;2023-04-01T03:22:13;5.35;64.47
64652;HTU21D;51062;45.120;37.660;2023-04-01T03:24:39;5.74;64.15
64652;HTU21D;51062;45.120;37.660;2023-04-01T03:27:05;6.17;63.63
64652;HTU21D;51062;45.120;37.660;2023-04-01T03:29:31;6.60;63.40
64652;HTU21D;51062;45.120;37.660;2023-04-01T03:31:57;7.04;63.31
64652;HTU21D;51062;45.120;37.660;2023-04-01T03:34:25;7.43;63.27
64652;HTU21D;51062;45.120;37.660;2023-04-01T03:36:51;7.83;62.99
64652;HTU21D;51062;45.120;37.660;2023-04-01T03:39:18;8.23;62.73
64652;HTU21D;51062;45.120;37.660;2023-04-01T03:41:45;8.60;62.37
64652;HTU21D;51062;45.120;37.660;2023-04-01T03:44:12;8.96;62.25
64652;HTU21D;51062;45.120;37.660;2023-04-01T03:46:38;9.36;62.24
64652;HTU21D;51062;45.120;37.660;2023-04-01T03:49:09;9.78;62.08
64652;HTU21D;51062;45.120;37.660;2023-04-01T03:51:38;10.22;61.76
64652;HTU21D;51062;45.120;37.660;2023-04-01T03:54:05;10.59;61.54
64652;HTU21D;51062;45.120;37.660;2023-04-01T03:56:32;10.95;61.62
64652;HTU21D;51062;45.120;37.660;2023-04-01T03:58:58;11.32;61.56
64652;HTU21D;51062;45.120;37.660;2023-04-01T04:01:24;11.72;61.50
64652;HTU21D;51062;45.120;37.660;2023-04-01T04:03:54;12.11;61.31
64652;HTU21D;51062;45.120;37.660;2023-04-01T04:06:22;12.47;61.22
64652;HTU21D;51062;45.120;37.660;2023-04-01T04:08:49;12.79;61.39
64652;HTU21D;51062;45.120;37.660;2023-04-01T04:11:15;13.18;61.23
64652;HTU21D;51062;45.120;37.660;2023-04-01T04:13:42;13.59;60.83
64652;HTU21D;51062;45.120;37.660;2023-04-01T04:16:10;13.95;60.40
64652;HTU21D;51062;45.120;37.660;2023-04-01T04:18:42;14.28;60.04
64652;HTU21D;51062;45.120;37.660;2023-04-01T04:21:12;14.55;59.85
64652;HTU21D;51062;45.120;37.660;2023-04-01T04:23:41;14.78;59.55
64652;HTU21D;51062;45.120;37.660;2023-04-01T04:26:09;15.01;59.26
64652;HTU21D;51062;45.120;37.660;2023-04-01T04:28:36;15.22;58.90
64652;HTU21D;51062;45.120;37.660;2023-04-01T04:31:03;15.34;58.82
64652;HTU21D;51062;45.120;37.660;2023-04-01T04:33:34;15.42;58.80
64652;HTU21D;51062;45.120;37.660;2023-04-01T04:36:01;15.61;58.85
64652;HTU21D;51062;45.120;37.660;2023-04-01T04:38:27;15.72;58.73
64652;HTU21D;51062;45.120;37.660;2023-04-01T04:40:54;15.86;58.35
64652;HTU21D;51062;45.120;37.660;2023-04-01T04:43:20;15.88;58.30
64652;HTU21D;51062;45.120;37.660;2023-04-01T04:45:46;16.05;58.48
64652;HTU21D;51062;45.120;37.660;2023-04-01T04:48:15;16.25;58.14
64652;HTU21D;51062;45.120;37.660;2023-04-01T04:50:48;16.42;57.83
64652;HTU21D;51062;45.120;37.660;2023-04-01T04:53:17;16.58;57.55
64652;HTU21D;51062;45.120;37.660;2023-04-01T04:55:46;16.67;57.69
64652;HTU21D;51062;45.120;37.660;2023-04-01T04:58:48;16.98;57.64
64652;HTU21D;51062;45.120;37.660;2023-04-01T05:01:20;17.35;57.45
64652;HTU21D;51062;45.120;37.660;2023-04-01T05:03:47;17.69;57.23
64652;HTU21D;51062;45.120;37.660;2023-04-01T05:06:15;17.89;57.52
64652;HTU21D;51062;45.120;37.660;2023-04-01T05:08:43;18.19;57.43
64652;HTU21D;51062;45.120;37.660;2023-04-01T05:11:13;18.44;57.55
64652;HTU21D;51062;45.120;37.660;2023-04-01T05:13:42;18.69;57.58
64652;HTU21D;51062;45.120;37.660;2023-04-01T05:16:10;19.01;57.16
64652;HTU21D;51062;45.120;37.660;2023-04-01T05:18:37;19.29;56.58
64652;HTU21D;51062;45.120;37.660;2023-04-01T05:21:03;19.38;56.65
64652;HTU21D;51062;45.120;37.660;2023-04-01T05:23:31;19.61;56.77
64652;HTU21D;51062;45.120;37.660;2023-04-01T05:25:57;20.01;56.33
64652;HTU21D;51062;45.120;37.660;2023-04-01T05:28:23;20.31;55.68
64652;HTU21D;51062;45.120;37.660;2023-04-01T05:30:51;20.26;55.00
64652;HTU21D;51062;45.120;37.660;2023-04-01T05:33:22;19.95;54.94
64652;HTU21D;51062;45.120;37.660;2023-04-01T05:35:48;19.79;55.32
64652;HTU21D;51062;45.120;37.660;2023-04-01T05:38:14;19.70;55.15
64652;HTU21D;51062;45.120;37.660;2023-04-01T05:40:40;19.60;54.56
64652;HTU21D;51062;45.120;37.660;2023-04-01T05:43:07;19.38;54.07
64652;HTU21D;51062;45.120;37.660;2023-04-01T05:45:34;19.23;53.81
64652;HTU21D;51062;45.120;37.660;2023-04-01T05:48:13;19.14;53.59
64652;HTU21D;51062;45.120;37.660;2023-04-01T05:50:40;19.10;53.49
64652;HTU21D;51062;45.120;37.660;2023-04-01T05:53:08;19.17;52.91
64652;HTU21D;51062;45.120;37.660;2023-04-01T05:55:36;19.32;52.76
64652;HTU21D;51062;45.120;37.660;2023-04-01T05:58:03;19.43;52.63
64652;HTU21D;51062;45.120;37.660;2023-04-01T06:00:30;19.36;52.63
64652;HTU21D;51062;45.120;37.660;2023-04-01T06:03:01;19.35;52.55
64652;HTU21D;51062;45.120;37.660;2023-04-01T06:05:29;19.38;52.69
64652;HTU21D;51062;45.120;37.660;2023-04-01T06:07:59;19.56;52.04
64652;HTU21D;51062;45.120;37.660;2023-04-01T06:13:55;19.83;51.39
64652;HTU21D;51062;45.120;37.660;2023-04-01T06:16:44;19.79;51.46
64652;HTU21D;51062;45.120;37.660;2023-04-01T06:30:35;19.99;50.73
64652;HTU21D;51062;45.120;37.660;2023-04-01T06:36:12;20.32;49.31
64652;HTU21D;51062;45.120;37.660;2023-04-01T06:47:45;19.67;49.57
64652;HTU21D;51062;45.120;37.660;2023-04-01T06:54:24;20.11;49.32
64652;HTU21D;51062;45.120;37.660;2023-04-01T06:57:23;20.31;47.83
64652;HTU21D;51062;45.120;37.660;2023-04-01T06:59:51;20.06;48.08
64652;HTU21D;51062;45.120;37.660;2023-04-01T07:02:34;20.03;48.67
64652;HTU21D;51062;45.120;37.660;2023-04-01T07:05:04;20.11;47.97
64652;HTU21D;51062;45.120;37.660;2023-04-01T07:07:43;19.95;47.96
64652;HTU21D;51062;45.120;37.660;2023-04-01T07:10:20;19.99;48.08
64652;HTU21D;51062;45.120;37.660;2023-04-01T07:13:13;19.96;47.46
64652;HTU21D;51062;45.120;37.660;2023-04-01T07:18:48;19.80;47.62
64652;HTU21D;51062;45.120;37.660;2023-04-01T07:21:40;19.80;46.54
64652;HTU21D;51062;45.120;37.660;2023-04-01T07:26:56;19.45;47.21
64652;HTU21D;51062;45.120;37.660;2023-04-01T07:29:26;19.50;47.02
64652;HTU21D;51062;45.120;37.660;2023-04-01T07:35:02;19.90;47.12
64652;HTU21D;51062;45.120;37.660;2023-04-01T07:37:39;20.16;46.76
64652;HTU21D;51062;45.120;37.660;2023-04-01T07:40:26;20.18;46.53
64652;HTU21D;51062;45.120;37.660;2023-04-01T07:43:29;20.10;46.64
64652;HTU21D;51062;45.120;37.660;2023-04-01T07:49:37;19.67;45.25
64652;HTU21D;51062;45.120;37.660;2023-04-01T07:52:34;19.27;46.25
64652;HTU21D;51062;45.120;37.660;2023-04-01T08:01:05;19.62;46.27
64652;HTU21D;51062;45.120;37.660;2023-04-01T08:06:18;19.42;45.28
64652;HTU21D;51062;45.120;37.660;2023-04-01T08:18:29;18.23;44.97
64652;HTU21D;51062;45.120;37.660;2023-04-01T08:21:00;17.61;45.71
64652;HTU21D;51062;45.120;37.660;2023-04-01T08:23:36;17.14;46.22
64652;HTU21D;51062;45.120;37.660;2023-04-01T08:26:11;16.75;46.64
64652;HTU21D;51062;45.120;37.660;2023-04-01T08:28:56;16.34;46.51
64652;HTU21D;51062;45.120;37.660;2023-04-01T08:31:43;15.92;47.18
64652;HTU21D;51062;45.120;37.660;2023-04-01T08:34:16;15.69;47.31
64652;HTU21D;51062;45.120;37.660;2023-04-01T08:36:50;15.53;47.49
64652;HTU21D;51062;45.120;37.660;2023-04-01T08:39:25;15.44;47.57
64652;HTU21D;51062;45.120;37.660;2023-04-01T08:48:04;15.09;47.65
64652;HTU21D;51062;45.120;37.660;2023-04-01T08:53:56;14.96;47.74
64652;HTU21D;51062;45.120;37.660;2023-04-01T08:56:36;15.02;47.51
64652;HTU21D;51062;45.120;37.660;2023-04-01T08:59:25;15.08;47.76
64652;HTU21D;51062;45.120;37.660;2023-04-01T09:02:23;15.17;47.72
64652;HTU21D;51062;45.120;37.660;2023-04-01T09:05:05;15.28;47.70
64652;HTU21D;51062;45.120;37.660;2023-04-01T09:08:03;15.19;46.70
64652;HTU21D;51062;45.120;37.660;2023-04-01T09:17:29;14.85;47.63
64652;HTU21D;51062;45.120;37.660;2023-04-01T09:26:03;14.57;47.89
64652;HTU21D;51062;45.120;37.660;2023-04-01T09:28:55;14.58;48.02
64652;HTU21D;51062;45.120;37.660;2023-04-01T09:32:01;14.64;48.12
64652;HTU21D;51062;45.120;37.660;2023-04-01T09:38:24;14.93;48.02
64652;HTU21D;51062;45.120;37.660;2023-04-01T09:40:57;15.02;48.06
64652;HTU21D;51062;45.120;37.660;2023-04-01T09:51:48;14.64;48.25
64652;HTU21D;51062;45.120;37.660;2023-04-01T10:09:30;14.57;48.79
64652;HTU21D;51062;45.120;37.660;2023-04-01T10:37:11;14.48;48.50
64652;HTU21D;51062;45.120;37.660;2023-04-01T10:40:17;14.50;48.53
64652;HTU21D;51062;45.120;37.660;2023-04-01T11:02:05;14.49;48.13
64652;HTU21D;51062;45.120;37.660;2023-04-01T11:05:26;14.35;48.35
64652;HTU21D;51062;45.120;37.660;2023-04-01T11:19:43;14.24;48.41
64652;HTU21D;51062;45.120;37.660;2023-04-01T11:43:41;14.00;48.58
64652;HTU21D;51062;45.120;37.660;2023-04-01T12:07:06;13.91;48.73
64652;HTU21D;51062;45.120;37.660;2023-04-01T12:37:35;13.78;48.95
64652;HTU21D;51062;45.120;37.660;2023-04-01T12:43:27;13.55;48.77
64652;HTU21D;51062;45.120;37.660;2023-04-01T12:48:56;13.29;49.21
64652;HTU21D;51062;45.120;37.660;2023-04-01T13:08:01;13.06;49.18
64652;HTU21D;51062;45.120;37.660;2023-04-01T13:16:26;13.07;48.84
64652;HTU21D;51062;45.120;37.660;2023-04-01T13:38:48;13.46;48.53
64652;HTU21D;51062;45.120;37.660;2023-04-01T13:41:38;13.55;48.53
64652;HTU21D;51062;45.120;37.660;2023-04-01T13:44:17;13.61;48.44
64652;HTU21D;51062;45.120;37.660;2023-04-01T13:55:57;13.69;47.44
64652;HTU21D;51062;45.120;37.660;2023-04-01T14:01:19;13.55;47.80
64652;HTU21D;51062;45.120;37.660;2023-04-01T14:06:57;13.29;47.87
64652;HTU21D;51062;45.120;37.660;2023-04-01T14:14:43;12.84;47.55
64652;HTU21D;51062;45.120;37.660;2023-04-01T14:17:39;12.69;48.13
64652;HTU21D;51062;45.120;37.660;2023-04-01T14:20:26;12.61;48.32
64652;HTU21D;51062;45.120;37.660;2023-04-01T14:40:28;12.16;48.27
64652;HTU21D;51062;45.120;37.660;2023-04-01T14:48:27;11.81;48.47
64652;HTU21D;51062;45.120;37.660;2023-04-01T14:51:03;11.74;48.43
64652;HTU21D;51062;45.120;37.660;2023-04-01T14:53:37;11.66;48.32
64652;HTU21D;51062;45.120;37.660;2023-04-01T14:56:08;11.58;48.57
64652;HTU21D;51062;45.120;37.660;2023-04-01T14:58:41;11.49;48.70
64652;HTU21D;51062;45.120;37.660;2023-04-01T15:07:11;11.07;48.84
64652;HTU21D;51062;45.120;37.660;2023-04-01T15:12:58;10.82;49.08
64652;HTU21D;51062;45.120;37.660;2023-04-01T15:23:56;10.57;49.39
64652;HTU21D;51062;45.120;37.660;2023-04-01T15:29:07;10.52;49.43
64652;HTU21D;51062;45.120;37.660;2023-04-01T15:32:04;10.49;49.50
64652;HTU21D;51062;45.120;37.660;2023-04-01T15:40:22;10.38;49.66
64652;HTU21D;51062;45.120;37.660;2023-04-01T15:49:00;10.29;49.60
64652;HTU21D;51062;45.120;37.660;2023-04-01T15:57:09;10.22;49.73
64652;HTU21D;51062;45.120;37.660;2023-04-01T16:02:48;10.21;49.77
64652;HTU21D;51062;45.120;37.660;2023-04-01T16:16:11;10.19;49.97
64652;HTU21D;51062;45.120;37.660;2023-04-01T16:23:55;10.18;49.94
64652;HTU21D;51062;45.120;37.660;2023-04-01T16:29:11;10.11;50.05
64652;HTU21D;51062;45.120;37.660;2023-04-01T16:31:54;10.09;50.12
64652;HTU21D;51062;45.120;37.660;2023-04-01T16:37:34;10.07;50.18
64652;HTU21D;51062;45.120;37.660;2023-04-01T16:42:48;10.05;50.18
64652;HTU21D;51062;45.120;37.660;2023-04-01T16:45:38;10.04;50.22
64652;HTU21D;51062;45.120;37.660;2023-04-01T16:48:21;9.99;50.23
64652;HTU21D;51062;45.120;37.660;2023-04-01T16:50:58;9.99;50.27
64652;HTU21D;51062;45.120;37.660;2023-04-01T16:59:03;9.90;50.38
64652;HTU21D;51062;45.120;37.660;2023-04-01T17:25:57;9.40;51.08
64652;HTU21D;51062;45.120;37.660;2023-04-01T17:36:25;9.15;51.41
64652;HTU21D;51062;45.120;37.660;2023-04-01T17:44:47;8.96;51.60
64652;HTU21D;51062;45.120;37.660;2023-04-01T17:52:43;8.83;51.78
64652;HTU21D;51062;45.120;37.660;2023-04-01T18:01:30;8.75;52.04
64652;HTU21D;51062;45.120;37.660;2023-04-01T18:07:14;8.70;52.15
64652;HTU21D;51062;45.120;37.660;2023-04-01T18:15:30;8.66;52.25
64652;HTU21D;51062;45.120;37.660;2023-04-01T18:23:40;8.71;52.30
64652;HTU21D;51062;45.120;37.660;2023-04-01T18:26:31;8.75;52.27
64652;HTU21D;51062;45.120;37.660;2023-04-01T18:31:50;8.81;52.19
64652;HTU21D;51062;45.120;37.660;2023-04-01T18:34:41;8.85;52.17
64652;HTU21D;51062;45.120;37.660;2023-04-01T18:37:59;8.85;52.14
64652;HTU21D;51062;45.120;37.660;2023-04-01T18:43:32;8.81;52.14
64652;HTU21D;51062;45.120;37.660;2023-04-01T18:46:36;8.81;52.22
64652;HTU21D;51062;45.120;37.660;2023-04-01T18:57:46;9.03;51.85
64652;HTU21D;51062;45.120;37.660;2023-04-01T19:00:22;9.06;51.89
64652;HTU21D;51062;45.120;37.660;2023-04-01T19:02:58;9.10;51.84
64652;HTU21D;51062;45.120;37.660;2023-04-01T19:05:34;9.12;51.81
64652;HTU21D;51062;45.120;37.660;2023-04-01T19:10:52;9.09;51.78
64652;HTU21D;51062;45.120;37.660;2023-04-01T19:13:46;9.08;51.78
64652;HTU21D;51062;45.120;37.660;2023-04-01T19:19:20;9.02;51.72
64652;HTU21D;51062;45.120;37.660;2023-04-01T19:22:01;8.98;51.72
64652;HTU21D;51062;45.120;37.660;2023-04-01T19:27:41;8.92;51.60
64652;HTU21D;51062;45.120;37.660;2023-04-01T19:33:28;8.67;51.63
64652;HTU21D;51062;45.120;37.660;2023-04-01T19:50:53;7.96;52.46
64652;HTU21D;51062;45.120;37.660;2023-04-01T19:56:22;7.84;52.46
64652;HTU21D;51062;45.120;37.660;2023-04-01T19:59:16;7.81;52.52
64652;HTU21D;51062;45.120;37.660;2023-04-01T20:04:29;7.79;52.57
64652;HTU21D;51062;45.120;37.660;2023-04-01T20:14:45;7.84;52.72
64652;HTU21D;51062;45.120;37.660;2023-04-01T20:17:20;7.86;52.72
64652;HTU21D;51062;45.120;37.660;2023-04-01T20:20:00;7.89;52.70
64652;HTU21D;51062;45.120;37.660;2023-04-01T20:25:32;7.86;52.72
64652;HTU21D;51062;45.120;37.660;2023-04-01T20:31:12;7.78;52.64
64652;HTU21D;51062;45.120;37.660;2023-04-01T20:36:39;7.61;52.60
64652;HTU21D;51062;45.120;37.660;2023-04-01T20:52:32;7.14;52.94
64652;HTU21D;51062;45.120;37.660;2023-04-01T20:55:26;7.05;53.01
64652;HTU21D;51062;45.120;37.660;2023-04-01T21:23:20;6.90;52.96
64652;HTU21D;51062;45.120;37.660;2023-04-01T21:32:11;6.90;52.91
64652;HTU21D;51062;45.120;37.660;2023-04-01T21:40:44;6.74;52.97
64652;HTU21D;51062;45.120;37.660;2023-04-01T21:46:11;6.65;53.00
64652;HTU21D;51062;45.120;37.660;2023-04-01T21:52:11;6.57;53.04
64652;HTU21D;51062;45.120;37.660;2023-04-01T21:58:00;6.50;53.04
64652;HTU21D;51062;45.120;37.660;2023-04-01T22:06:26;6.49;53.08
64652;HTU21D;51062;45.120;37.660;2023-04-01T22:09:11;6.48;53.08
64652;HTU21D;51062;45.120;37.660;2023-04-01T22:11:58;6.48;53.08
64652;HTU21D;51062;45.120;37.660;2023-04-01T22:25:32;6.16;53.20
64652;HTU21D;51062;45.120;37.660;2023-04-01T22:28:07;6.10;53.21
64652;HTU21D;51062;45.120;37.660;2023-04-01T22:31:01;6.01;53.25
64652;HTU21D;51062;45.120;37.660;2023-04-01T22:41:42;5.76;53.36
64652;HTU21D;51062;45.120;37.660;2023-04-01T22:52:45;5.60;53.43
64652;HTU21D;51062;45.120;37.660;2023-04-01T22:55:24;5.55;53.47
64652;HTU21D;51062;45.120;37.660;2023-04-01T22:57:53;5.49;53.53
64652;HTU21D;51062;45.120;37.660;2023-04-01T23:00:38;5.43;53.65
64652;HTU21D;51062;45.120;37.660;2023-04-01T23:03:14;5.42;53.70
64652;HTU21D;51062;45.120;37.660;2023-04-01T23:05:49;5.40;53.75
64652;HTU21D;51062;45.120;37.660;2023-04-01T23:11:18;5.34;53.72
64652;HTU21D;51062;45.120;37.660;2023-04-01T23:14:10;5.30;53.83
64652;HTU21D;51062;45.120;37.660;2023-04-01T23:16:50;5.28;53.81
64652;HTU21D;51062;45.120;37.660;2023-04-01T23:22:24;5.18;53.75
64652;HTU21D;51062;45.120;37.660;2023-04-01T23:35:51;4.83;54.17
64652;HTU21D;51062;45.120;37.660;2023-04-01T23:38:23;4.80;54.17
64652;HTU21D;51062;45.120;37.660;2023-04-01T23:40:52;4.76;54.20
64652;HTU21D;51062;45.120;37.660;2023-04-01T23:45:55;4.69;54.28
64652;HTU21D;51062;45.120;37.660;2023-04-01T23:48:29;4.65;54.29
64652;HTU21D;51062;45.120;37.660;2023-04-01T23:50:58;4.64;54.33
64652;HTU21D;51062;45.120;37.660;2023-04-01T23:53:26;4.63;54.33
64652;HTU21D;51062;45.120;37.660;2023-04-01T23:55:55;4.62;54.33
64652;HTU21D;51062;45.120;37.660;2023-04-01T23:58:25;4.61;54.35
